Tiempo atmosférico en la estación meteorológica de Benavente, Zamora (715 m.)



Fecha
DESCASC
Temp. máxima en grados centígrados (hora)
DESCASC
Temp. mínima en grados centígrados (hora)
DESCASC
Temp. media en grados centígrados
DESCASC
Racha de viento máxima en m/sg (hora)
DESCASC
Velocidad máxima media en intervalos de 10 minutos(hora)
DESCASC
Precipitaciones diarias en mm
DESCASC
Precipitaciones de 00:00 a 06:00 en mm
DESCASC
Precipitaciones de 06:00 a 12:00 en mm
DESCASC
Precipitaciones de 12:00 a 18:00 en mm
DESCASC
Precipitaciones de 18:00 a 24:00 en mm
DESCASC
18-02-2018 13 (16:50) -2 (05:20) 5.5 7.78 (21:00) 4.17 (21:10) 0 0 0 0 0
17-02-2018 13.3 (16:10) 2 (23:59) 7.7 9.17 (18:10) 5.28 (18:10) 0 0 0 0 0
16-02-2018 13.5 (16:00) 8.6 (23:40) 11.1 7.5 (16:10) 4.17 (15:30) 0 0 0 0 0
15-02-2018 12.7 (15:10) 8.7 (00:00) 10.7 9.72 (13:50) 5.56 (07:20) 0 0 0 0 0
14-02-2018 9.8 (14:00) 7.1 (00:00) 8.5 10.83 (14:50) 5 (14:30) 0.2 0 0 0 0.2
13-02-2018 7.7 (23:50) -1.5 (-00:0) 3.1 12.78 (13:30) 6.39 (12:50) 0.2 0 0 0.2 0
12-02-2018 8.6 (15:10) -2.7 (-00:0) 3 10.28 (01:20) 5.28 (01:20) 0 0 0 0 0
11-02-2018 13.5 (14:30) 0.4 (00:00) 7 12.5 (15:00) 5.56 (15:20) 0 0 0 0 0
10-02-2018 11.1 (16:10) -2.1 (-00:0) 4.5 9.17 (16:30) 4.72 (11:00) 0 0 0 0 0
09-02-2018 11.8 (15:30) -2.3 (-00:0) 4.8 10.28 (17:00) 5.28 (16:10) 0 0 0 0 0
08-02-2018 7.1 (17:20) -6.3 (-00:0) 0.4 5.56 (14:40) 2.78 (14:00) 0 0 0 0 0
07-02-2018 6.8 (14:50) -4.6 (-00:0) 1.1 11.67 (16:50) 6.11 (16:50) 0 0 0 0 0
06-02-2018 6 (13:30) -3.4 (-00:0) 1.3 12.22 (00:40) 6.11 (00:50) 0 0 0 0 0
05-02-2018 7.9 (13:30) -1.2 (-00:0) 3.4 15.28 (15:40) 8.61 (15:40) 0 0 0 0 0
04-02-2018 8.6 (15:40) -0.7 (-00:0) 4 10.56 (13:10) 5.83 (13:10) 0 0 0 0 0
03-02-2018 9.4 (13:10) 1.1 (00:00) 5.2 8.61 (14:20) 3.89 (01:10) 0 0 0 0 0
02-02-2018 7.6 (15:40) -1.1 (-00:0) 3.2 13.06 (16:10) 7.22 (14:20) 0 0 0 0 0
01-02-2018 9.6 (13:10) 0.1 (00:00) 4.9 15 (16:30) 8.33 (16:30) 0 0 0 0 0
31-01-2018 14.1 (17:20) -2.2 (-00:0) 6 6.11 (15:40) 3.06 (16:20) 0 0 0 0 0
30-01-2018 13.2 (17:00) -1.3 (-00:0) 5.9 5.28 (11:40) 3.33 (11:10) 0 0 0 0 0
29-01-2018 13.1 (15:50) -0.1 (00:00) 6.5 5.28 (02:30) 3.33 (02:00) 0 0 0 0 0
28-01-2018 12.8 (16:10) -1.6 (-00:0) 5.6 10 (16:00) 5 (16:00) 0 0 0 0 0
27-01-2018 10.5 (14:30) 0.5 (00:00) 5.5 9.44 (17:00) 5 (17:00) 0 0 0 0 0
26-01-2018 9.4 (15:20) 0.8 (00:00) 5.1 15.28 (14:10) 6.39 (16:10) 0 0 0 0 0
25-01-2018 8.2 (15:00) 2.3 (00:00) 5.2 10.28 (19:00) 5 (19:00) 9.8 2.6 4.4 2.8 0
24-01-2018 8.8 (15:20) 3.6 (00:00) 6.2 5.56 (11:50) 2.5 (15:30) 0 0 0 0 0
23-01-2018 6.6 (00:00) 4.7 (00:00) 5.6 3.89 (21:40) 1.39 (03:00) 0 0 0 0 0
22-01-2018 6.9 (16:50) 0.3 (00:00) 3.6 5.28 (19:00) 2.78 (18:40) 0 0 0 0 0

Gráficas

Temp. máximas Temp. mínimas Temp. medias Precipitaciones Rachas de viento máximas Velocidades máximas media en intervalos de 10 minutos

Datos horarios

Fecha y hora oficial Temperatura (ºC) Velocidad del viento (km/h) Dirección del viento Racha (km/h) Dirección de racha Precipitación (mm) Presión (hPa) Tendencia (hPa) Humedad (%)
2018-02-20 23:00:00 4.6 5 Nordeste 19 Este 0 936.8 -0.1 72
2018-02-20 22:00:00 6 9 Norte 21 Norte 0 936.8 0.4 67
2018-02-20 21:00:00 7.2 13 Norte 23 Norte 0 936.8 0.5 63
2018-02-20 20:00:00 8.2 11 Norte 28 Nordeste 0 936.9 0.6 58
2018-02-20 19:00:00 10.5 18 Norte 41 Nordeste 0 936.4 -0.1 48
2018-02-20 18:00:00 12.5 21 Norte 41 Nordeste 0 936.3 -0.6 40
2018-02-20 17:00:00 14 19 Norte 37 Norte 0 936.3 -0.9 38
2018-02-20 16:00:00 14.1 17 Nordeste 39 Nordeste 0 936.5 -1.6 36
2018-02-20 15:00:00 13.8 22 Nordeste 40 Nordeste 0 936.9 -1.6 35
2018-02-20 14:00:00 13.2 14 Norte 33 Nordeste 0 937.2 -1.1 39
2018-02-20 13:00:00 12.3 14 Norte 32 Norte 0 938.1 0 45
2018-02-20 12:00:00 10.5 14 Norte 27 Nordeste 0 938.5 0.2 49
2018-02-20 11:00:00 9.7 14 Norte 27 Norte 0 938.3 0.4 52
2018-02-20 10:00:00 7.7 10 Norte 18 Norte 0 938.1 0.1 66
2018-02-20 09:00:00 4 3 Este 14 Este 0 938.3 0.7 82
2018-02-20 08:00:00 3.1 5 Noroeste 12 Norte 0 937.9 0.4 84
2018-02-20 07:00:00 3.6 2 Sudeste 22 Noroeste 0 938 0.5 80
2018-02-20 06:00:00 5.4 13 Norte 25 Noroeste 0 937.6 0 76
2018-02-20 05:00:00 4.5 3 Sudoeste 9 Sudoeste 0 937.5 -0.3 82
2018-02-20 04:00:00 6.2 4 Norte 12 Norte 0 937.5 -0.3 77
2018-02-20 03:00:00 6.2 8 Norte 14 Norte 0 937.6 0.1 76
2018-02-20 02:00:00 6.4 2 Este 13 Nordeste 0 937.8 0.2 78
2018-02-20 01:00:00 6.5 3 Nordeste 22 Norte 0 937.8 0.1 77
2018-02-20 00:00:00 6.6 12 Noroeste 21 Noroeste 0 937.5 0.1 77
2018-02-19 23:00:00 7 12 Norte 26 Norte 0 937.6 0.4 74
2018-02-19 22:00:00 8.1 11 Noroeste 23 Norte 0 937.7 0.4 70
2018-02-19 21:00:00 8.5 13 Norte 24 Norte 0 937.4 0.3 67
2018-02-19 20:00:00 9.3 11 Norte 28 Norte 0 937.2 0.3 63
2018-02-19 19:00:00 10.8 9 Norte 25 Norte 0 937.3 0.4 57
2018-02-19 18:00:00 11.8 14 Norte 30 Norte 0 937.1 -0.2 50
2018-02-19 17:00:00 13.1 14 Norte 30 Norte 0 936.9 -0.7 46
2018-02-19 16:00:00 13.8 15 Norte 28 Nordeste 0 936.9 -1.3 43
2018-02-19 15:00:00 13.1 15 Norte 28 Nordeste 0 937.3 -0.9 45
2018-02-19 14:00:00 12.1 12 Norte 23 Norte 0 937.6 -0.6 49
2018-02-19 13:00:00 11.6 9 Norte 19 Norte 0 938.2 -0.1 51
2018-02-19 12:00:00 10.6 6 Noroeste 13 Norte 0 938.2 -0.1 56
2018-02-19 11:00:00 8.6 2 Noroeste 9 Nordeste 0 938.2 0.2 64
2018-02-19 10:00:00 6.6 2 Nordeste 4 Este 0 938.3 0.5 75
2018-02-19 09:00:00 5.4 0 Calma 4 Sudoeste 0 938.3 0.7 79
2018-02-19 08:00:00 5.2 2 Sur 4 Sur 0 938 0.5 79
2018-02-19 07:00:00 5.4 2 Nordeste 8 Nordeste 0 937.8 -0.2 78
2018-02-19 06:00:00 5.6 3 Nordeste 8 Noroeste 0 937.6 -0.6 78
2018-02-19 05:00:00 5.2 0 Calma 4 Sudoeste 0 937.5 -1.2 77
2018-02-19 04:00:00 4.7 2 Oeste 6 Este 0 938 -1.1 77
2018-02-19 03:00:00 6.4 3 Nordeste 11 Nordeste 0 938.2 -1.1 70
2018-02-19 02:00:00 6.6 5 Norte 9 Norte 0 938.7 -1.1 72
2018-02-19 01:00:00 6.7 5 Norte 13 Norte 0 939.1 -0.9 72
2018-02-19 00:00:00 6.7 4 Norte 9 Norte 0 939.3 -1 73
2018-02-18 23:00:00 7.6 5 Norte 9 Norte 0 939.8 -0.3 69
2018-02-18 22:00:00 8 4 Norte 27 Norte 0 940 0 71
2018-02-18 21:00:00 8.9 13 Norte 28 Norte 0 940.3 0.6 58
2018-02-18 20:00:00 9.4 10 Norte 21 Nordeste 0 940.1 0.4 54
2018-02-18 19:00:00 10.6 6 Norte 13 Nordeste 0 940 0 49
2018-02-18 18:00:00 11.7 5 Sur 16 Sudeste 0 939.7 -0.8 45
2018-02-18 17:00:00 12.7 6 Sudeste 16 Sudeste 0 939.7 -1.5 42
2018-02-18 16:00:00 12.3 5 Nordeste 15 Sudeste 0 940 -1.9 41
2018-02-18 15:00:00 11.7 5 Nordeste 21 Este 0 940.5 -2.1 43
2018-02-18 14:00:00 9.7 5 Nordeste 15 Norte 0 941.2 -1.8 46
2018-02-18 13:00:00 8.7 4 Nordeste 10 Este 0 941.9 -1.1 43
2018-02-18 12:00:00 7.1 3 Norte 10 Noroeste 0 942.6 -0.5 54
2018-02-18 11:00:00 4.7 4 Norte 14 Norte 0 943 0.1 69
2018-02-18 10:00:00 1 4 Norte 11 Norte 0 943 0.2 80
2018-02-18 09:00:00 -1.5 5 Norte 14 Noroeste 0 943.1 0 87
2018-02-18 08:00:00 -1.8 4 Noroeste 12 Oeste 0 942.9 -0.1 86
2018-02-18 07:00:00 -1.5 0 Calma 13 Nordeste 0 942.8 -0.8 86
2018-02-18 06:00:00 -1.1 5 Norte 17 Noroeste 0 943.1 -0.9 86
2018-02-18 05:00:00 -1.7 0 Calma 5 Noroeste 0 943 -1 87
2018-02-18 04:00:00 -1.3 3 Norte 6 Nordeste 0 943.6 -0.4 87
2018-02-18 03:00:00 -0.2 5 Norte 7 Norte 0 944 0 84
2018-02-18 02:00:00 0.7 4 Norte 10 Nordeste 0 944 0.3 82
2018-02-18 01:00:00 1.6 5 Norte 11 Nordeste 0 944 0.6 80
2018-02-18 00:00:00 2 4 Norte 9 Nordeste 0 944 0.8 77
2018-02-17 23:00:00 3.7 3 Nordeste 12 Nordeste 0 943.7 1.1 70
2018-02-17 22:00:00 5.5 7 Norte 21 Norte 0 943.4 1.4 64
2018-02-17 21:00:00 5 7 Norte 12 Norte 0 943.2 1.8 63
2018-02-17 20:00:00 7 8 Nordeste 21 Nordeste 0 942.6 1.7 51
2018-02-17 19:00:00 8.9 12 Norte 33 Nordeste 0 942 1.1 41
2018-02-17 18:00:00 11.4 12 Norte 32 Nordeste 0 941.4 0.2 37
2018-02-17 17:00:00 12 13 Nordeste 28 Nordeste 0 940.9 -0.7 37
2018-02-17 16:00:00 13.2 12 Norte 23 Norte 0 940.9 -1.3 34
2018-02-17 15:00:00 11.9 10 Nordeste 30 Norte 0 941.2 -1 39
2018-02-17 14:00:00 11.5 10 Nordeste 28 Nordeste 0 941.6 -0.3 41
2018-02-17 13:00:00 11 12 Nordeste 29 Norte 0 942.2 0.6 41
2018-02-17 12:00:00 10.3 13 Norte 28 Norte 0 942.2 1.2 52
2018-02-17 11:00:00 8.8 18 Norte 27 Norte 0 941.9 1.8 60
2018-02-17 10:00:00 7 11 Norte 23 Norte 0 941.6 1.7 72
2018-02-17 09:00:00 6.3 8 Norte 25 Norte 0 941 1.3 80
2018-02-17 08:00:00 6.2 12 Norte 24 Norte 0 940.1 0.7 83
2018-02-17 07:00:00 5.8 5 Norte 15 Noroeste 0 939.9 0.5 81
2018-02-17 06:00:00 6.4 4 Sudoeste 5 Sur 0 939.7 0.3 85
2018-02-17 05:00:00 7.4 2 Sudeste 9 Noroeste 0 939.4 0.2 81
2018-02-17 04:00:00 7.5 4 Oeste 11 Noroeste 0 939.4 0.3 83
2018-02-17 03:00:00 7.1 4 Oeste 8 Oeste 0 939.4 0.6 86
2018-02-17 02:00:00 6.8 2 Norte 14 Sudoeste 0 939.2 0.6 87
2018-02-17 01:00:00 7.8 8 Sudoeste 19 Oeste 0 939.1 0.6 84
2018-02-17 00:00:00 8.6 8 Sudoeste 22 Sudoeste 0 938.8 0.2 83
2018-02-16 23:00:00 9 12 Sudoeste 22 Sudoeste 0 938.6 0.3 81
2018-02-16 22:00:00 9.8 9 Sudoeste 19 Oeste 0 938.5 0.4 77
2018-02-16 21:00:00 10.9 9 Sudoeste 21 Sudoeste 0 938.6 0.6 72
2018-02-16 20:00:00 11.4 12 Sudoeste 22 Oeste 0 938.3 0.5 69
2018-02-16 19:00:00 11.9 12 Sudoeste 25 Sudoeste 0 938.1 0.1 69
2018-02-16 18:00:00 12.8 12 Sudoeste 26 Sudoeste 0 938 -0.5 66
2018-02-16 17:00:00 13.3 12 Sudoeste 27 Sudoeste 0 937.8 -1.5 65
2018-02-16 16:00:00 13.5 10 Sudoeste 25 Sudoeste 0 938 -2 65
2018-02-16 15:00:00 13 10 Sudoeste 24 Sudoeste 0 938.5 -2 72
2018-02-16 14:00:00 12.8 11 Sur 23 Sur 0 939.3 -1.2 74
2018-02-16 13:00:00 12.3 10 Sudoeste 23 Sur 0 940 -0.3 75
2018-02-16 12:00:00 12.1 10 Sur 22 Sur 0 940.5 0.2 76
2018-02-16 11:00:00 11.4 10 Sudoeste 22 Sur 0 940.5 0.5 81
2018-02-16 10:00:00 10.6 10 Sudoeste 19 Sudoeste 0 940.3 0.3 87
2018-02-16 09:00:00 9.5 8 Sudoeste 19 Sudoeste 0 940.3 0.1 91
2018-02-16 08:00:00 9.3 10 Sudoeste 19 Sudoeste 0 940 -0.2 91
2018-02-16 07:00:00 9.3 6 Sur 18 Sudoeste 0 940 -0.5 91
2018-02-16 06:00:00 9.4 9 Sudoeste 23 Sudoeste 0 940.2 -0.6 90
2018-02-16 05:00:00 9.5 7 Sudoeste 19 Sudoeste 0 940.2 -0.7 90
2018-02-16 04:00:00 9.8 10 Sudoeste 20 Sudoeste 0 940.5 -0.6 89
2018-02-16 03:00:00 10.3 11 Sudoeste 19 Sudoeste 0 940.8 -0.2 87
2018-02-16 02:00:00 10.1 12 Sudoeste 19 Sudoeste 0 940.9 -0.1 88
2018-02-16 01:00:00 10.2 10 Sudoeste 19 Sudoeste 0 941.1 0.1 88
2018-02-16 00:00:00 10.4 13 Sudoeste 27 Sudoeste 0 941 -0.1 88
2018-02-15 23:00:00 10.4 9 Sudoeste 21 Sudoeste 0 941 -0.1 88
2018-02-15 22:00:00 10.6 12 Sudoeste 21 Sudoeste 0 941 0.5 87
2018-02-15 21:00:00 10.8 7 Sur 20 Sur 0 941.1 0.9 88
2018-02-15 20:00:00 11 7 Sudoeste 24 Sur 0 941.1 1.1 88
2018-02-15 19:00:00 11.5 13 Sudoeste 23 Sudoeste 0 940.5 0.6 85
2018-02-15 18:00:00 11.7 14 Sudoeste 26 Sudoeste 0 940.2 0.4 83
2018-02-15 17:00:00 12 12 Sudoeste 28 Sudoeste 0 940 -0.2 82
2018-02-15 16:00:00 12.3 15 Sudoeste 30 Sudoeste 0 939.9 -0.6 80
2018-02-15 15:00:00 12.6 11 Sudoeste 32 Sudoeste 0 939.8 -0.7 79
2018-02-15 14:00:00 11.6 14 Sudoeste 35 Sur 0 940.2 -0.1 82
2018-02-15 13:00:00 11.3 9 Sudoeste 31 Sudoeste 0 940.5 0.7 83
2018-02-15 12:00:00 10.3 10 Sudoeste 22 Sur 0 940.5 1.1 89
2018-02-15 11:00:00 10 10 Sudoeste 21 Sudoeste 0 940.3 1.8 89
2018-02-15 10:00:00 9.7 9 Sudoeste 30 Sudoeste 0 939.8 1.7 90
2018-02-15 09:00:00 9.3 12 Sudoeste 30 Sudoeste 0 939.4 1.7 91
2018-02-15 08:00:00 9.4 17 Sudoeste 34 Sudoeste 0 938.5 0.8 89
2018-02-15 07:00:00 9.4 19 Sudoeste 30 Sudoeste 0 938.1 0.5 89
2018-02-15 06:00:00 9.4 12 Sudoeste 28 Sudoeste 0 937.7 0.1 89
2018-02-15 05:00:00 9.4 18 Sudoeste 28 Sudoeste 0 937.7 0.2 90
2018-02-15 04:00:00 8.9 9 Sudoeste 21 Sudoeste 0 937.6 0.1 91
2018-02-15 03:00:00 9.2 8 Sudoeste 21 Sudoeste 0 937.6 0.1 90
2018-02-15 02:00:00 9.1 10 Sudoeste 31 Sudoeste 0 937.5 0 91
2018-02-15 01:00:00 9 10 Sudoeste 25 Sudoeste 0 937.5 0.5 92
2018-02-15 00:00:00 8.9 8 Sur 18 Sur 0 937.5 0.8 92
2018-02-14 23:00:00 8.9 8 Sudoeste 21 Sur 0.2 937.5 1.2 92
2018-02-14 22:00:00 8.8 8 Sur 18 Sudoeste 0 937 1.2 92
2018-02-14 21:00:00 8.8 8 Sudoeste 23 Sur 0 936.7 1.3 91
2018-02-14 20:00:00 8.7 11 Sur 28 Sudoeste 0 936.3 1.2 90
2018-02-14 19:00:00 9 12 Sudoeste 29 Sudoeste 0 935.8 1.3 88
2018-02-14 18:00:00 9.6 18 Sudoeste 29 Sudoeste 0 935.4 1 85
2018-02-14 17:00:00 9.7 14 Sudoeste 31 Sudoeste 0 935.1 0.5 83
2018-02-14 16:00:00 9.6 18 Sudoeste 38 Sudoeste 0 934.5 0 83
2018-02-14 15:00:00 9.6 15 Sudoeste 39 Sudoeste 0 934.4 -0.2 81
2018-02-14 14:00:00 9.7 13 Sudoeste 32 Sudoeste 0 934.6 0.5 80
2018-02-14 13:00:00 9.4 15 Sudoeste 36 Sudoeste 0 934.5 0.8 80
2018-02-14 12:00:00 9.1 17 Sudoeste 37 Sudoeste 0 934.6 1.2 81
2018-02-14 11:00:00 8.5 13 Sudoeste 30 Sudoeste 0 934.1 0.9 83
2018-02-14 10:00:00 8 15 Sudoeste 30 Sudoeste 0 933.7 0.6 83
2018-02-14 09:00:00 7.4 11 Sudoeste 25 Sudoeste 0 933.4 0.3 83
2018-02-14 08:00:00 7.5 11 Sudoeste 25 Sudoeste 0 933.2 0.3 81
2018-02-14 07:00:00 7.2 8 Sudoeste 24 Sudoeste 0 933.1 0 82
2018-02-14 06:00:00 7.2 13 Sudoeste 30 Sudoeste 0 933.1 -0.2 82
2018-02-14 05:00:00 7.1 13 Sudoeste 35 Oeste 0 932.9 -0.6 83
2018-02-14 04:00:00 7.1 17 Sudoeste 37 Oeste 0 933.1 -0.5 82
2018-02-14 03:00:00 7.3 15 Sudoeste 33 Sudoeste 0 933.3 -0.1 82
2018-02-14 02:00:00 7.3 13 Sudoeste 31 Sudoeste 0 933.5 0.2 83
2018-02-14 01:00:00 7.5 16 Sudoeste 32 Sudoeste 0 933.6 0.6 83
2018-02-14 00:00:00 7.6 14 Sudoeste 33 Sudoeste 0 933.4 0.4 84
2018-02-13 23:00:00 7.5 13 Sudoeste 24 Sudoeste 0 933.3 0.5 86
2018-02-13 22:00:00 7.5 10 Sudoeste 20 Oeste 0 933 0.5 88
2018-02-13 21:00:00 7.2 8 Sudoeste 17 Sudoeste 0 933 0.7 90
2018-02-13 20:00:00 6.7 5 Sur 11 Sudoeste 0 932.8 0.7 91
2018-02-13 19:00:00 6.8 6 Sur 14 Sudoeste 0 932.5 0.7 89
2018-02-13 18:00:00 7 8 Sudoeste 23 Sudoeste 0.2 932.3 0.2 86
2018-02-13 17:00:00 6.6 10 Sudoeste 30 Sudoeste 0 932.1 -0.3 85
2018-02-13 16:00:00 6.5 11 Sudoeste 30 Oeste 0 931.8 -1.3 83
2018-02-13 15:00:00 6.9 16 Sudoeste 41 Sudoeste 0 932.1 -1.3 71
2018-02-13 14:00:00 6 18 Sudoeste 46 Sudoeste 0 932.4 -1.3 72
2018-02-13 13:00:00 5.7 17 Sudoeste 41 Sudoeste 0 933.1 -0.3 71
2018-02-13 12:00:00 3.5 15 Sudoeste 35 Sudoeste 0 933.4 0.1 80
2018-02-13 11:00:00 1.8 12 Sudoeste 25 Sur 0 933.7 0.4 82
2018-02-13 10:00:00 1.1 10 Sur 32 Sudoeste 0 933.4 -0.4 78
2018-02-13 09:00:00 0.5 16 Sudoeste 33 Sudoeste 0 933.3 -1.1 79
2018-02-13 08:00:00 0.3 15 Sudoeste 33 Sudoeste 0 933.3 -1.5 79
2018-02-13 07:00:00 0.3 13 Sudoeste 30 Sudoeste 0 933.8 -1.5 78
2018-02-13 06:00:00 -0.6 11 Sudoeste 22 Sudoeste 0 934.4 -1.6 80
2018-02-13 05:00:00 -1.3 5 Sudoeste 20 Sudoeste 0 934.8 -1.9 76
2018-02-13 04:00:00 -1.2 10 Sudoeste 19 Sudoeste 0 935.3 -1.4 72
2018-02-13 03:00:00 -0.5 5 Sudoeste 17 Sudoeste 0 936 -1 65
2018-02-13 02:00:00 -0.4 4 Sudoeste 12 Sudoeste 0 936.7 -0.5 63
2018-02-13 01:00:00 -0.5 3 Sudoeste 10 Sudeste 0 936.7 -1.1 63
2018-02-13 00:00:00 0.7 3 Sur 7 Sudeste 0 937 -0.6 63
2018-02-12 23:00:00 0.8 0 Calma 11 Noroeste 0 937.2 0.3 63
2018-02-12 22:00:00 2 7 Oeste 19 Noroeste 0 937.8 0.9 58
2018-02-12 21:00:00 2.2 10 Noroeste 17 Noroeste 0 937.6 0.9 58
2018-02-12 20:00:00 2 7 Norte 15 Norte 0 936.9 0.2 57
2018-02-12 19:00:00 3.7 6 Noroeste 16 Norte 0 936.9 0 52
2018-02-12 18:00:00 6.3 11 Norte 33 Nordeste 0 936.7 -0.6 47
2018-02-12 17:00:00 7.5 6 Noroeste 18 Norte 0 936.7 -1.2 31
2018-02-12 16:00:00 7.2 9 Norte 21 Norte 0 936.9 -1.9 36
2018-02-12 15:00:00 8.2 6 Oeste 24 Norte 0 937.3 -1.9 34
2018-02-12 14:00:00 7.9 11 Norte 27 Norte 0 937.9 -1.1 36
2018-02-12 13:00:00 6.6 10 Noroeste 24 Norte 0 938.8 0.2 38
2018-02-12 12:00:00 5.4 11 Noroeste 30 Noroeste 0 939.2 1 46
2018-02-12 11:00:00 4.1 13 Noroeste 29 Noroeste 0 939 1.3 54
2018-02-12 10:00:00 1.3 12 Noroeste 21 Noroeste 0 938.6 0.9 66
2018-02-12 09:00:00 -2.6 3 Norte 6 Norte 0 938.2 0.8 80
2018-02-12 08:00:00 -2.4 2 Norte 8 Norte 0 937.7 0.5 78
2018-02-12 07:00:00 -0.7 2 Norte 11 Norte 0 937.7 0.3 70
2018-02-12 06:00:00 0.5 7 Noroeste 34 Noroeste 0 937.4 -0.3 65
2018-02-12 05:00:00 1.7 17 Norte 37 Norte 0 937.2 -0.5 59
2018-02-12 04:00:00 2.4 15 Norte 37 Noroeste 0 937.4 -0.3 59
2018-02-12 03:00:00 3 14 Noroeste 31 Noroeste 0 937.7 0.2 63
2018-02-12 02:00:00 3.2 11 Norte 37 Norte 0 937.7 0.4 72
2018-02-12 01:00:00 4.3 15 Noroeste 30 Noroeste 0 937.7 0.9 70
2018-02-12 00:00:00 4.8 9 Noroeste 31 Noroeste 0 937.5 0.9 76
2018-02-11 23:00:00 5.4 12 Noroeste 29 Noroeste 0 937.3 1.1 76
2018-02-11 22:00:00 5.8 11 Norte 22 Norte 0 936.8 1.2 79
2018-02-11 21:00:00 7.4 8 Noroeste 15 Noroeste 0 936.6 1.3 75
2018-02-11 20:00:00 9.2 11 Noroeste 26 Oeste 0 936.2 0.8 73
2018-02-11 19:00:00 10.4 12 Oeste 31 Sudoeste 0 935.6 -0.2 71
2018-02-11 18:00:00 11.3 14 Oeste 38 Oeste 0 935.3 -0.5 66
2018-02-11 17:00:00 11.9 15 Oeste 42 Oeste 0 935.4 -1.2 65
2018-02-11 16:00:00 11.8 12 Oeste 42 Oeste 0 935.8 -1.4 67
2018-02-11 15:00:00 12.9 16 Oeste 45 Oeste 0 935.8 -2.1 59
2018-02-11 14:00:00 12 10 Oeste 26 Oeste 0 936.6 -1.5 63
2018-02-11 13:00:00 10.9 10 Oeste 22 Oeste 0 937.2 -0.9 69
2018-02-11 12:00:00 9.2 8 Sudoeste 21 Oeste 0 937.9 -0.3 75
2018-02-11 11:00:00 7.9 9 Sudoeste 19 Oeste 0 938.1 0.3 80
2018-02-11 10:00:00 5.7 6 Sudoeste 14 Oeste 0 938.1 0.2 82
2018-02-11 09:00:00 4.4 4 Sudoeste 15 Oeste 0 938.2 0.5 82
2018-02-11 08:00:00 3.6 9 Oeste 18 Oeste 0 937.8 0.2 92
2018-02-11 07:00:00 1.1 0 Calma 10 Oeste 0 937.9 0.1 85
2018-02-11 06:00:00 1.9 4 Sur 12 Sur 0 937.7 -0.4 84
2018-02-11 05:00:00 2.1 4 Sur 8 Sudoeste 0 937.6 -0.9 83
2018-02-11 04:00:00 2 4 Sur 15 Este 0 937.8 -0.8 82
2018-02-11 03:00:00 2 3 Sudoeste 6 Sudoeste 0 938.1 -0.6 83
2018-02-11 02:00:00 2.1 0 Calma 5 Este 0 938.5 -0.3 79
2018-02-11 01:00:00 3 0 Calma 9 Sur 0 938.6 -0.5 73
2018-02-11 00:00:00 5.1 2 Sur 6 Sudoeste 0 938.7 -0.4 69
2018-02-10 23:00:00 6.5 3 Sudoeste 13 Noroeste 0 938.8 -0.3 67
2018-02-10 22:00:00 6.6 6 Noroeste 17 Noroeste 0 939.1 0 66
2018-02-10 21:00:00 6.6 10 Noroeste 24 Noroeste 0 939.1 0.1 65
2018-02-10 20:00:00 6.8 13 Noroeste 26 Noroeste 0 939.1 0.7 63
2018-02-10 19:00:00 7.6 12 Noroeste 26 Noroeste 0 939.1 0.8 57
2018-02-10 18:00:00 9 14 Noroeste 27 Noroeste 0 939 0.1 49
2018-02-10 17:00:00 10.6 15 Noroeste 33 Norte 0 938.4 -1.4 40
2018-02-10 16:00:00 10.9 11 Noroeste 25 Oeste 0 938.3 -2.4 39
2018-02-10 15:00:00 10.5 10 Noroeste 24 Norte 0 938.9 -2.4 38
2018-02-10 14:00:00 9.3 9 Noroeste 22 Noroeste 0 939.8 -1.6 40
2018-02-10 13:00:00 8.1 8 Noroeste 26 Norte 0 940.7 -0.4 44
2018-02-10 12:00:00 7.1 13 Norte 29 Noroeste 0 941.3 0.4 50
2018-02-10 11:00:00 4.7 17 Noroeste 30 Noroeste 0 941.4 1.1 62
2018-02-10 10:00:00 1.1 3 Noroeste 8 Nordeste 0 941.1 0.9 77
2018-02-10 09:00:00 -1.8 4 Norte 10 Nordeste 0 940.9 0.8 86
2018-02-10 08:00:00 -1.1 3 Noroeste 17 Noroeste 0 940.3 0.1 78
2018-02-10 07:00:00 0 6 Noroeste 22 Noroeste 0 940.2 -0.2 77
2018-02-10 06:00:00 0.1 9 Noroeste 17 Noroeste 0 940.1 -0.6 78
2018-02-10 05:00:00 -0.6 3 Norte 8 Norte 0 940.2 -0.8 81
2018-02-10 04:00:00 -0.6 4 Noroeste 10 Noroeste 0 940.4 -0.9 81
2018-02-10 03:00:00 -1.1 3 Oeste 10 Noroeste 0 940.7 -0.3 82
2018-02-10 02:00:00 -1.2 7 Norte 18 Nordeste 0 941 0.3 81
2018-02-10 01:00:00 -0.1 8 Norte 27 Noroeste 0 941.3 1.1 76
2018-02-10 00:00:00 0.2 7 Noroeste 13 Norte 0 941 1.2 75
2018-02-09 23:00:00 1.4 8 Noroeste 13 Noroeste 0 940.7 1.1 72
2018-02-09 22:00:00 2.8 9 Norte 21 Norte 0 940.2 1.8 68
2018-02-09 21:00:00 3.7 9 Noroeste 20 Noroeste 0 939.8 2.5 67
2018-02-09 20:00:00 5 10 Norte 22 Norte 0 939.6 3.3 60
2018-02-09 19:00:00 7 14 Norte 35 Norte 0 938.4 2.5 53
2018-02-09 18:00:00 9.4 14 Norte 31 Noroeste 0 937.3 1.6 51
2018-02-09 17:00:00 10.3 18 Noroeste 37 Noroeste 0 936.3 0.7 50
2018-02-09 16:00:00 11.3 18 Noroeste 32 Noroeste 0 935.9 -0.1 45
2018-02-09 15:00:00 11.5 12 Noroeste 27 Noroeste 0 935.7 -0.4 45
2018-02-09 14:00:00 10.9 7 Noroeste 15 Noroeste 0 935.6 -0.6 51
2018-02-09 13:00:00 8.1 3 Este 11 Oeste 0 936 -0.1 55
2018-02-09 12:00:00 5.7 4 Sur 12 Sudoeste 0 936.1 0.2 58
2018-02-09 11:00:00 3.6 2 Sur 6 Sur 0 936.2 0.9 64
2018-02-09 10:00:00 0.6 0 Calma 5 Este 0 936.1 1.5 77
2018-02-09 09:00:00 -1.3 0 Calma 6 Norte 0 935.9 0.8 84
2018-02-09 08:00:00 -1.6 0 Calma 8 Noroeste 0 935.3 0.1 86
2018-02-09 07:00:00 -1.7 0 Calma 5 Sudeste 0 934.6 -0.7 82
2018-02-09 06:00:00 -1.3 2 Este 16 Este 0 935.1 -0.5 80
2018-02-09 05:00:00 -1.5 2 Norte 6 Este 0 935.2 -0.6 77
2018-02-09 04:00:00 -1.8 2 Nordeste 4 Sur 0 935.3 -0.6 75
2018-02-09 03:00:00 -2.3 2 Norte 5 Este 0 935.6 -0.6 75
2018-02-09 02:00:00 -1.8 2 Nordeste 5 Este 0 935.8 -0.6 74
2018-02-09 01:00:00 -2 0 Calma 11 Oeste 0 935.9 -0.7 71
2018-02-09 00:00:00 -0.1 6 Oeste 13 Oeste 0 936.2 -0.3 59
2018-02-08 23:00:00 -0.4 0 Calma 15 Sudoeste 0 936.4 -0.4 59
2018-02-08 22:00:00 1.3 6 Sudoeste 18 Sudoeste 0 936.6 0.1 53
2018-02-08 21:00:00 1.9 7 Sudoeste 16 Sudoeste 0 936.5 0.3 52
2018-02-08 20:00:00 3 6 Sudoeste 12 Sudoeste 0 936.8 0.6 48
2018-02-08 19:00:00 3.5 2 Sudoeste 6 Este 0 936.5 0 45
2018-02-08 18:00:00 6.5 3 Norte 13 Norte 0 936.2 -1 35
2018-02-08 17:00:00 6.9 7 Norte 15 Norte 0 936.2 -1.5 34
2018-02-08 16:00:00 5.8 8 Noroeste 17 Noroeste 0 936.5 -1.9 37
2018-02-08 15:00:00 4.9 4 Norte 20 Norte 0 937.2 -1.7 40
2018-02-08 14:00:00 5.6 10 Noroeste 19 Norte 0 937.7 -1.3 41
2018-02-08 13:00:00 4.3 3 Noroeste 9 Sudoeste 0 938.4 -0.6 46
2018-02-08 12:00:00 1.3 3 Sur 10 Sur 0 938.9 0.3 63
2018-02-08 11:00:00 -1.4 3 Sudeste 9 Nordeste 0 939 0.6 73
2018-02-08 10:00:00 -3.3 0 Calma 8 Noroeste 0 939 1.1 77
2018-02-08 09:00:00 -4.6 3 Noroeste 9 Noroeste 0 938.6 0.6 82
2018-02-08 08:00:00 -5.1 4 Noroeste 8 Nordeste 0 938.4 0.4 83
2018-02-08 07:00:00 -5.8 4 Norte 9 Nordeste 0 937.9 -0.2 85
2018-02-08 06:00:00 -5.7 3 Noroeste 10 Nordeste 0 938 0 83
2018-02-08 05:00:00 -5.8 5 Norte 11 Norte 0 938 0 85
2018-02-08 04:00:00 -5.9 3 Norte 6 Nordeste 0 938.1 0.1 84
2018-02-08 03:00:00 -4.7 3 Norte 7 Norte 0 938 0.2 80
2018-02-08 02:00:00 -4.7 3 Noroeste 6 Oeste 0 938 0.5 82
2018-02-08 01:00:00 -3.8 0 Calma 7 Norte 0 938 1.2 80
2018-02-08 00:00:00 -3.7 2 Norte 14 Noroeste 0 937.8 1.3 80
2018-02-07 23:00:00 -2.9 0 Calma 12 Norte 0 937.5 1.6 75
2018-02-07 22:00:00 -1.9 6 Norte 21 Norte 0 936.8 1.7 70
2018-02-07 21:00:00 0.1 12 Norte 22 Norte 0 936.5 1.6 61
2018-02-07 20:00:00 1 10 Norte 26 Norte 0 935.9 1 52
2018-02-07 19:00:00 2.1 11 Norte 32 Norte 0 935.1 0.6 55
2018-02-07 18:00:00 4.6 17 Norte 36 Norte 0 934.9 0.4 43
2018-02-07 17:00:00 4.8 19 Norte 42 Norte 0 934.9 0.2 41
2018-02-07 16:00:00 5.6 17 Norte 31 Norte 0 934.5 -0.4 35
2018-02-07 15:00:00 6.2 15 Norte 40 Norte 0 934.5 -0.4 35
2018-02-07 14:00:00 5.8 18 Norte 33 Nordeste 0 934.7 0.2 34
2018-02-07 13:00:00 5.6 19 Nordeste 32 Norte 0 934.9 1.1 37
2018-02-07 12:00:00 4.6 15 Norte 29 Norte 0 934.9 1.7 48
2018-02-07 11:00:00 3 13 Norte 25 Norte 0 934.5 1.9 62
2018-02-07 10:00:00 0.6 14 Noroeste 29 Noroeste 0 933.8 1.4 73
2018-02-07 09:00:00 -2 15 Noroeste 30 Noroeste 0 933.2 1.1 80
2018-02-07 08:00:00 -2.8 14 Noroeste 26 Noroeste 0 932.6 0.5 83
2018-02-07 07:00:00 -2.7 6 Norte 26 Noroeste 0 932.4 0.4 83
2018-02-07 06:00:00 -2.3 12 Noroeste 22 Noroeste 0 932.1 0.1 84
2018-02-07 05:00:00 -3.8 0 Calma 8 Nordeste 0 932.1 0.5 88
2018-02-07 04:00:00 -3.8 2 Nordeste 8 Norte 0 932 0.4 87
2018-02-07 03:00:00 -3.5 3 Noroeste 8 Nordeste 0 932 0.5 84
2018-02-07 02:00:00 -2.9 3 Noroeste 10 Nordeste 0 931.6 0.2 81
2018-02-07 01:00:00 -2.6 3 Noroeste 12 Este 0 931.6 0.3 80
2018-02-07 00:00:00 -1.8 3 Norte 17 Noroeste 0 931.5 0.5 76
2018-02-06 23:00:00 -1.1 4 Norte 18 Norte 0 931.4 0.6 72
2018-02-06 22:00:00 -1.1 8 Norte 19 Norte 0 931.3 1 69
2018-02-06 21:00:00 0.1 8 Noroeste 19 Norte 0 931 0.9 61
2018-02-06 20:00:00 0.7 8 Norte 13 Noroeste 0 930.8 0.8 58
2018-02-06 19:00:00 2.3 9 Noroeste 27 Norte 0 930.3 0.3 53
2018-02-06 18:00:00 3.4 10 Norte 31 Noroeste 0 930.1 -0.1 51
2018-02-06 17:00:00 3.7 16 Norte 33 Norte 0 930 -0.6 48
2018-02-06 16:00:00 4.5 15 Norte 29 Norte 0 930 -1.1 44
2018-02-06 15:00:00 4.8 13 Norte 29 Norte 0 930.2 -1.4 42
2018-02-06 14:00:00 5.7 10 Norte 34 Norte 0 930.6 -1 37
2018-02-06 13:00:00 5.3 16 Norte 33 Norte 0 931.1 -0.3 37
2018-02-06 12:00:00 4.1 13 Norte 28 Nordeste 0 931.6 0.6 47
2018-02-06 11:00:00 2.5 13 Noroeste 29 Norte 0 931.6 1.1 51
2018-02-06 10:00:00 -0.3 14 Noroeste 26 Noroeste 0 931.4 1.3 58
2018-02-06 09:00:00 -3.4 3 Este 27 Noroeste 0 931 0.8 68
2018-02-06 08:00:00 -2.3 14 Noroeste 29 Noroeste 0 930.5 0.5 62
2018-02-06 07:00:00 -2.6 12 Noroeste 27 Noroeste 0 930.1 -0.2 65
2018-02-06 06:00:00 -2.6 15 Noroeste 30 Noroeste 0 930.2 0.2 66
2018-02-06 05:00:00 -2.4 13 Noroeste 28 Norte 0 930 0.1 68
2018-02-06 04:00:00 -1.8 12 Norte 35 Norte 0 930.3 0.4 67
2018-02-06 03:00:00 -1 18 Norte 29 Norte 0 930 0.4 65
2018-02-06 02:00:00 -0.7 15 Norte 36 Noroeste 0 929.9 0.5 61
2018-02-06 01:00:00 -0.2 22 Norte 44 Norte 0 929.9 0.5 58
2018-02-06 00:00:00 0.3 21 Norte 41 Norte 0 929.6 0.6 60
2018-02-05 23:00:00 0.5 18 Norte 38 Norte 0 929.4 1.2 60
2018-02-05 22:00:00 0.7 20 Norte 38 Norte 0 929.4 2 63
2018-02-05 21:00:00 1.1 19 Norte 37 Norte 0 929 2.4 62
2018-02-05 20:00:00 1.8 22 Norte 44 Norte 0 928.2 2.3 59
2018-02-05 19:00:00 3.2 27 Norte 50 Norte 0 927.4 1.9 51
2018-02-05 18:00:00 5.3 30 Norte 54 Norte 0 926.6 1 42
2018-02-05 17:00:00 6.3 30 Norte 51 Norte 0 925.9 0 40
2018-02-05 16:00:00 7 29 Norte 55 Norte 0 925.5 -0.8 40
2018-02-05 15:00:00 7.1 26 Norte 51 Norte 0 925.6 -1.2 40
2018-02-05 14:00:00 7.1 23 Norte 51 Norte 0 925.9 -1.1 39
2018-02-05 13:00:00 7.3 25 Norte 54 Nordeste 0 926.3 -0.7 40
2018-02-05 12:00:00 6 21 Nordeste 37 Nordeste 0 926.8 0 52
2018-02-05 11:00:00 3 17 Norte 30 Norte 0 927 0.6 70
2018-02-05 10:00:00 1 5 Norte 20 Norte 0 927 1 81
2018-02-05 09:00:00 0.2 10 Norte 16 Norte 0 926.8 1.1 85
2018-02-05 08:00:00 -0.6 5 Norte 12 Nordeste 0 926.4 0.7 86
2018-02-05 07:00:00 -0.7 8 Norte 15 Norte 0 926 -0.1 86
2018-02-05 06:00:00 -0.3 10 Norte 24 Norte 0 925.7 -1 83
2018-02-05 05:00:00 -0.5 9 Norte 21 Norte 0 925.7 -1.4 85
2018-02-05 04:00:00 -0.1 9 Norte 15 Norte 0 926.1 -1.2 85
2018-02-05 03:00:00 -0.9 5 Norte 11 Este 0 926.7 -0.8 84
2018-02-05 02:00:00 -1 2 Noroeste 7 Norte 0 927.1 -0.2 82
2018-02-05 01:00:00 -0.5 4 Nordeste 8 Norte 0 927.3 -0.1 78
2018-02-05 00:00:00 -0.6 3 Nordeste 17 Nordeste 0 927.5 0 77
2018-02-04 23:00:00 -0.2 4 Nordeste 16 Este 0 927.3 -0.2 75
2018-02-04 22:00:00 0.8 4 Nordeste 15 Norte 0 927.4 0.2 68
2018-02-04 21:00:00 2.4 10 Norte 23 Norte 0 927.5 0.6 61
2018-02-04 20:00:00 3.3 15 Norte 26 Norte 0 927.5 0.6 56
2018-02-04 19:00:00 4.4 14 Norte 31 Norte 0 927.2 0.2 51
2018-02-04 18:00:00 6.9 17 Norte 34 Norte 0 926.9 -0.7 41
2018-02-04 17:00:00 7.4 16 Norte 35 Norte 0 926.9 -1.3 41
2018-02-04 16:00:00 8.1 16 Norte 34 Nordeste 0 927 -2 38
2018-02-04 15:00:00 7.6 17 Norte 37 Norte 0 927.6 -2.1 39
2018-02-04 14:00:00 7.5 17 Norte 38 Norte 0 928.2 -1.3 43
2018-02-04 13:00:00 7.1 18 Norte 37 Norte 0 929 -0.2 45
2018-02-04 12:00:00 5.6 16 Norte 36 Norte 0 929.7 0.4 53
2018-02-04 11:00:00 3.9 18 Norte 35 Norte 0 929.5 0.4 61
2018-02-04 10:00:00 1.4 18 Noroeste 34 Noroeste 0 929.2 0.3 74
2018-02-04 09:00:00 -0.7 12 Noroeste 24 Noroeste 0 929.3 0.3 79
2018-02-04 08:00:00 -0.3 13 Noroeste 27 Noroeste 0 929.1 0.1 76
2018-02-04 07:00:00 0 14 Noroeste 28 Noroeste 0 928.9 -0.4 73
2018-02-04 06:00:00 0 14 Noroeste 27 Noroeste 0 929 -0.4 73
2018-02-04 05:00:00 0.5 10 Noroeste 26 Noroeste 0 929 -0.6 71
2018-02-04 04:00:00 1.8 14 Noroeste 29 Noroeste 0 929.3 -1 67
2018-02-04 03:00:00 2.5 15 Noroeste 31 Noroeste 0 929.4 -1.2 66
2018-02-04 02:00:00 3.4 15 Noroeste 30 Noroeste 0 929.6 -1.3 68
2018-02-04 01:00:00 4.4 16 Noroeste 32 Noroeste 0 930.3 -0.9 69
2018-02-04 00:00:00 4.7 13 Noroeste 25 Norte 0 930.6 -0.7 68
2018-02-03 23:00:00 5.4 10 Noroeste 22 Noroeste 0 930.9 -0.6 68
2018-02-03 22:00:00 5.6 8 Noroeste 24 Noroeste 0 931.2 -0.7 67
2018-02-03 21:00:00 5.8 6 Noroeste 22 Noroeste 0 931.3 -0.4 72
2018-02-03 20:00:00 5.9 9 Oeste 19 Oeste 0 931.5 -0.5 77
2018-02-03 19:00:00 7 8 Oeste 25 Oeste 0 931.9 -0.5 74
2018-02-03 18:00:00 7.7 13 Oeste 26 Oeste 0 931.7 -1.1 69
2018-02-03 17:00:00 7.7 11 Sudoeste 25 Sudoeste 0 932 -1.7 67
2018-02-03 16:00:00 8.2 14 Oeste 28 Oeste 0 932.4 -1.9 64
2018-02-03 15:00:00 8.8 12 Oeste 31 Oeste 0 932.8 -2.5 59
2018-02-03 14:00:00 9 12 Oeste 29 Oeste 0 933.7 -2 58
2018-02-03 13:00:00 9.2 11 Sudoeste 28 Sudoeste 0 934.3 -1.2 53
2018-02-03 12:00:00 7.6 12 Oeste 28 Oeste 0 935.3 -0.2 53
2018-02-03 11:00:00 3.9 6 Sudoeste 14 Sudoeste 0 935.7 0 60
2018-02-03 10:00:00 2.5 5 Sur 11 Sudoeste 0 935.5 -0.2 63
2018-02-03 09:00:00 1.8 6 Sudoeste 17 Sur 0 935.5 0.2 68
2018-02-03 08:00:00 2.1 6 Oeste 14 Noroeste 0 935.7 0.2 67
2018-02-03 07:00:00 1.7 7 Noroeste 17 Oeste 0 935.7 0.1 68
2018-02-03 06:00:00 1.2 6 Oeste 16 Oeste 0 935.3 -0.8 66
2018-02-03 05:00:00 1.5 8 Oeste 20 Oeste 0 935.5 -0.8 62
2018-02-03 04:00:00 2.3 7 Oeste 19 Noroeste 0 935.6 -0.4 59
2018-02-03 03:00:00 2.3 10 Noroeste 24 Noroeste 0 936.1 -0.3 59
2018-02-03 02:00:00 2.6 9 Oeste 30 Noroeste 0 936.3 -0.1 59
2018-02-03 01:00:00 1.9 14 Noroeste 27 Noroeste 0 936 0.2 64
2018-02-03 00:00:00 1.5 10 Oeste 20 Noroeste 0 936.4 1.1 65
2018-02-02 23:00:00 1.2 9 Noroeste 19 Noroeste 0 936.4 1.3 66
2018-02-02 22:00:00 0.9 7 Oeste 27 Noroeste 0 935.8 1.3 67
2018-02-02 21:00:00 1.4 14 Noroeste 22 Noroeste 0 935.3 1.7 64
2018-02-02 20:00:00 2.5 8 Noroeste 16 Noroeste 0 935.1 2.1 59
2018-02-02 19:00:00 3.3 8 Norte 35 Norte 0 934.5 1.6 55
2018-02-02 18:00:00 5.7 19 Norte 37 Norte 0 933.6 0.8 46
2018-02-02 17:00:00 6.8 21 Norte 47 Norte 0 933 -0.1 43
2018-02-02 16:00:00 7.1 22 Norte 39 Norte 0 932.9 -0.3 40
2018-02-02 15:00:00 6.8 21 Norte 46 Norte 0 932.8 -0.3 42
2018-02-02 14:00:00 6.9 22 Norte 41 Norte 0 933.1 0.4 42
2018-02-02 13:00:00 6.1 22 Norte 40 Norte 0 933.2 0.8 49
2018-02-02 12:00:00 4.7 17 Norte 34 Noroeste 0 933.1 1 56
2018-02-02 11:00:00 3.3 14 Noroeste 30 Noroeste 0 932.7 1.6 64
2018-02-02 10:00:00 1.1 12 Norte 23 Noroeste 0 932.4 1.8 74
2018-02-02 09:00:00 -0.4 10 Norte 24 Noroeste 0 932.1 1.9 77
2018-02-02 08:00:00 -1 10 Noroeste 24 Noroeste 0 931.1 1.2 78
2018-02-02 07:00:00 -0.9 12 Norte 26 Norte 0 930.6 0.6 81
2018-02-02 06:00:00 -0.3 14 Norte 36 Norte 0 930.2 -0.1 79
2018-02-02 05:00:00 0 18 Norte 37 Norte 0 929.9 -0.1 79
2018-02-02 04:00:00 0.2 20 Norte 35 Norte 0 930 0.3 81
2018-02-02 03:00:00 0.3 17 Norte 31 Norte 0 930.3 0.3 80
2018-02-02 02:00:00 0.2 13 Norte 31 Norte 0 930 0.4 82
2018-02-02 01:00:00 0 13 Noroeste 29 Noroeste 0 929.7 0.3 82
2018-02-02 00:00:00 0.1 11 Noroeste 27 Noroeste 0 930 0.4 83
2018-02-01 23:00:00 0.6 9 Noroeste 36 Norte 0 929.6 0.7 85
2018-02-01 22:00:00 1.4 17 Noroeste 37 Norte 0 929.4 0.6 81
2018-02-01 21:00:00 2 16 Norte 35 Norte 0 929.6 1.4 74
2018-02-01 20:00:00 2.8 16 Norte 31 Noroeste 0 928.9 0.8 63
2018-02-01 19:00:00 3.4 5 Norte 30 Norte 0 928.8 0.6 60
2018-02-01 18:00:00 5.8 21 Norte 36 Norte 0 928.2 -0.8 52
2018-02-01 17:00:00 6.9 23 Norte 54 Norte 0 928.1 -2.1 43
2018-02-01 16:00:00 7.4 23 Norte 48 Norte 0 928.2 -2.6 45
2018-02-01 15:00:00 8.1 16 Noroeste 44 Noroeste 0 929 -2.4 48
2018-02-01 14:00:00 8.8 23 Noroeste 45 Noroeste 0 930.2 -1 47
2018-02-01 13:00:00 8.9 22 Noroeste 44 Noroeste 0 930.8 -0.9 48
2018-02-01 12:00:00 7.7 23 Noroeste 45 Noroeste 0 931.4 -0.5 51
2018-02-01 11:00:00 7 19 Noroeste 38 Noroeste 0 931.2 -1 55
2018-02-01 10:00:00 6.1 8 Noroeste 18 Noroeste 0 931.7 -0.6 65
2018-02-01 09:00:00 5.4 7 Noroeste 21 Noroeste 0 931.9 -0.5 71
2018-02-01 08:00:00 5.4 10 Norte 21 Noroeste 0 932.2 -0.6 76
2018-02-01 07:00:00 5.7 7 Norte 27 Noroeste 0 932.3 -1 75
2018-02-01 06:00:00 3.6 2 Noroeste 18 Oeste 0 932.4 -1.3 76
2018-02-01 05:00:00 4.1 5 Oeste 15 Sur 0 932.8 -1.5 74
2018-02-01 04:00:00 3 7 Sur 10 Sur 0 933.3 -1.3 72
2018-02-01 03:00:00 3.5 3 Nordeste 8 Noroeste 0 933.7 -1.3 66
2018-02-01 02:00:00 2.8 3 Noroeste 8 Sudoeste 0 934.3 -0.8 69
2018-02-01 01:00:00 3.5 2 Norte 8 Noroeste 0 934.6 -0.5 66
2018-02-01 00:00:00 4.9 3 Sudoeste 21 Noroeste 0 935 -0.7 59
2018-01-31 23:00:00 5.3 6 Norte 16 Noroeste 0 935.1 -0.8 60
2018-01-31 22:00:00 7.7 4 Oeste 19 Noroeste 0 935.1 -0.9 60
2018-01-31 21:00:00 8.7 9 Oeste 15 Oeste 0 935.7 -0.5 58
2018-01-31 20:00:00 9.8 7 Oeste 13 Oeste 0 935.9 -0.8 53
2018-01-31 19:00:00 10 4 Sudoeste 13 Sur 0 936 -1.1 55
2018-01-31 18:00:00 12.8 7 Sur 17 Sur 0 936.2 -1.8 45
2018-01-31 17:00:00 13.9 8 Sur 21 Sur 0 936.7 -2.7 43
2018-01-31 16:00:00 13.1 11 Sur 22 Sudoeste 0 937.1 -3.7 47
2018-01-31 15:00:00 12.2 10 Sur 20 Sur 0 938 -3.4 48
2018-01-31 14:00:00 10.8 8 Sur 17 Sur 0 939.4 -2.4 50
2018-01-31 13:00:00 8.8 4 Sur 10 Sudeste 0 940.8 -0.6 52
2018-01-31 12:00:00 6.2 2 Este 9 Sudeste 0 941.4 -0.1 62
2018-01-31 11:00:00 4.3 4 Norte 13 Este 0 941.8 0.2 64
2018-01-31 10:00:00 0.2 2 Oeste 8 Noroeste 0 941.4 -0.1 81
2018-01-31 09:00:00 -1.8 4 Sudoeste 6 Sur 0 941.5 0 86
2018-01-31 08:00:00 -1.5 4 Norte 14 Norte 0 941.6 0.2 84
2018-01-31 07:00:00 -1.6 4 Noroeste 12 Este 0 941.5 -0.3 85
2018-01-31 06:00:00 -2.1 3 Noroeste 5 Noroeste 0 941.5 -0.6 86
2018-01-31 05:00:00 -0.6 3 Nordeste 8 Norte 0 941.4 -1 82
2018-01-31 04:00:00 -0.5 4 Norte 9 Norte 0 941.8 -1 82
2018-01-31 03:00:00 0.5 4 Norte 13 Norte 0 942.1 -0.8 79
2018-01-31 02:00:00 1 3 Norte 10 Norte 0 942.4 -0.6 79
2018-01-31 01:00:00 1.4 5 Norte 12 Noroeste 0 942.8 -0.3 78
2018-01-31 00:00:00 1.8 2 Este 8 Norte 0 942.9 0.1 78
2018-01-30 23:00:00 1.5 4 Norte 5 Norte 0 943 0.4 80
2018-01-30 22:00:00 3 2 Este 6 Sudeste 0 943.1 0.6 76
2018-01-30 21:00:00 3.9 3 Sudoeste 5 Sur 0 942.8 0.5 71
2018-01-30 20:00:00 5 3 Sudoeste 5 Sudoeste 0 942.6 0 67
2018-01-30 19:00:00 7.7 0 Calma 4 Sudeste 0 942.5 -0.6 57
2018-01-30 18:00:00 12.5 0 Calma 9 Este 0 942.3 -1.4 38
2018-01-30 17:00:00 13 4 Norte 11 Norte 0 942.6 -1.9 39
2018-01-30 16:00:00 12.6 4 Nordeste 10 Este 0 943.1 -2.5 40
2018-01-30 15:00:00 11.4 6 Nordeste 10 Nordeste 0 943.7 -2.6 46
2018-01-30 14:00:00 10.6 4 Sudeste 11 Este 0 944.5 -1.8 47
2018-01-30 13:00:00 8.9 4 Nordeste 14 Nordeste 0 945.6 -0.8 54
2018-01-30 12:00:00 6.7 5 Norte 19 Nordeste 0 946.3 -0.4 62
2018-01-30 11:00:00 4.6 10 Nordeste 18 Norte 0 946.3 0 68
2018-01-30 10:00:00 1.5 6 Norte 11 Norte 0 946.4 0.1 77
2018-01-30 09:00:00 -0.7 0 Calma 13 Norte 0 946.7 0.3 82
2018-01-30 08:00:00 -1.3 4 Norte 9 Norte 0 946.3 -0.4 84
2018-01-30 07:00:00 -0.3 3 Este 10 Norte 0 946.3 -0.8 83
2018-01-30 06:00:00 0.2 4 Norte 14 Norte 0 946.4 -1 82
2018-01-30 05:00:00 0.4 8 Norte 14 Norte 0 946.7 -1 83
2018-01-30 04:00:00 0.3 6 Norte 10 Noroeste 0 947.1 -1.1 84
2018-01-30 03:00:00 0.9 5 Norte 12 Noroeste 0 947.4 -0.9 83
2018-01-30 02:00:00 1.2 6 Norte 13 Noroeste 0 947.7 -0.4 84
2018-01-30 01:00:00 1.7 3 Noroeste 10 Noroeste 0 948.2 0.1 86
2018-01-30 00:00:00 2.5 2 Norte 9 Norte 0 948.3 0.3 82
2018-01-29 23:00:00 2.8 5 Norte 8 Norte 0 948.1 0.4 83
2018-01-29 22:00:00 2.8 3 Norte 5 Norte 0 948.1 0.4 82
2018-01-29 21:00:00 5.2 5 Norte 8 Norte 0 948 0.4 77
2018-01-29 20:00:00 5 4 Norte 6 Norte 0 947.7 -0.1 75
2018-01-29 19:00:00 8 0 Calma 8 Este 0 947.7 -0.5 64
2018-01-29 18:00:00 12.1 5 Sudeste 13 Este 0 947.6 -1.4 50
2018-01-29 17:00:00 13 8 Este 14 Este 0 947.8 -2.2 44
2018-01-29 16:00:00 13.1 6 Nordeste 12 Nordeste 0 948.2 -2.8 48
2018-01-29 15:00:00 11.7 4 Nordeste 16 Nordeste 0 949 -2.7 54
2018-01-29 14:00:00 10.4 7 Norte 15 Nordeste 0 950 -1.7 58
2018-01-29 13:00:00 8.9 4 Norte 12 Norte 0 951 -0.7 62
2018-01-29 12:00:00 7.3 6 Norte 13 Norte 0 951.7 -0.1 66
2018-01-29 11:00:00 5.2 6 Norte 12 Nordeste 0 951.7 0.1 70
2018-01-29 10:00:00 2.2 8 Norte 17 Norte 0 951.7 0.2 80
2018-01-29 09:00:00 0 5 Norte 12 Este 0 951.8 -0.1 85
2018-01-29 08:00:00 -0.1 6 Norte 17 Noroeste 0 951.6 -0.3 85
2018-01-29 07:00:00 0 6 Noroeste 13 Noroeste 0 951.5 -1 85
2018-01-29 06:00:00 0.7 3 Norte 14 Norte 0 951.9 -0.7 82
2018-01-29 05:00:00 1.5 6 Norte 14 Norte 0 951.9 -1 81
2018-01-29 04:00:00 2.1 7 Norte 16 Norte 0 952.5 -0.5 79
2018-01-29 03:00:00 2.6 7 Noroeste 19 Norte 0 952.6 -0.4 79
2018-01-29 02:00:00 3 12 Norte 18 Norte 0 952.9 0.4 79
2018-01-29 01:00:00 3.6 7 Norte 18 Norte 0 953 0.2 77
2018-01-29 00:00:00 3.4 6 Norte 15 Norte 0 953 0.9 78
2018-01-28 23:00:00 4.9 10 Norte 22 Nordeste 0 952.5 0.6 74
2018-01-28 22:00:00 5.4 6 Norte 18 Nordeste 0 952.8 1.4 72
2018-01-28 21:00:00 6.6 10 Nordeste 17 Nordeste 0 952.1 1.5 68
2018-01-28 20:00:00 7 5 Norte 15 Nordeste 0 951.9 1.6 66
2018-01-28 19:00:00 9.1 9 Este 23 Nordeste 0 951.4 1 58
2018-01-28 18:00:00 11.4 10 Nordeste 32 Nordeste 0 950.6 -0.7 49
2018-01-28 17:00:00 12.4 18 Este 35 Nordeste 0 950.3 -1.6 44
2018-01-28 16:00:00 12.6 18 Nordeste 36 Nordeste 0 950.4 -2.4 43
2018-01-28 15:00:00 12 16 Nordeste 30 Nordeste 0 951.3 -1.8 43
2018-01-28 14:00:00 10.5 16 Nordeste 28 Este 0 951.9 -1.1 45
2018-01-28 13:00:00 9.1 15 Nordeste 28 Nordeste 0 952.8 0.4 45
2018-01-28 12:00:00 6.1 10 Nordeste 21 Norte 0 953.1 1.1 59
2018-01-28 11:00:00 3 10 Norte 19 Norte 0 953 1.5 72
2018-01-28 10:00:00 1 10 Nordeste 21 Norte 0 952.4 1.4 81
2018-01-28 09:00:00 -0.6 9 Norte 19 Norte 0 952 1.2 85
2018-01-28 08:00:00 -1.6 4 Norte 22 Norte 0 951.5 0.8 91
2018-01-28 07:00:00 -1.2 11 Norte 16 Norte 0 951 0.3 91
2018-01-28 06:00:00 -0.1 6 Norte 16 Norte 0 950.8 0.4 89
2018-01-28 05:00:00 -0.1 8 Norte 14 Norte 0 950.7 -0.1 89
2018-01-28 04:00:00 0.1 6 Norte 19 Nordeste 0 950.7 0 88
2018-01-28 03:00:00 0.5 4 Norte 17 Norte 0 950.4 -0.1 84
2018-01-28 02:00:00 0.8 4 Norte 14 Nordeste 0 950.8 0.7 83
2018-01-28 01:00:00 2.2 9 Nordeste 19 Este 0 950.7 0.7 80
2018-01-28 00:00:00 2 6 Norte 15 Nordeste 0 950.5 1.1 82
2018-01-27 23:00:00 4.1 8 Nordeste 21 Nordeste 0 950.1 1.2 76
2018-01-27 22:00:00 5.2 10 Nordeste 26 Nordeste 0 950 1.7 75
2018-01-27 21:00:00 5.8 6 Este 16 Nordeste 0 949.4 1.9 74
2018-01-27 20:00:00 6.6 7 Este 18 Este 0 948.9 1.9 69
2018-01-27 19:00:00 7.6 7 Este 14 Este 0 948.3 1.5 66
2018-01-27 18:00:00 8.6 8 Este 33 Nordeste 0 947.5 0.8 61
2018-01-27 17:00:00 9.6 18 Nordeste 34 Nordeste 0 947 -0.4 48
2018-01-27 16:00:00 9.7 15 Nordeste 33 Nordeste 0 946.8 -1 46
2018-01-27 15:00:00 10.4 12 Nordeste 28 Norte 0 946.7 -1.7 45
2018-01-27 14:00:00 10 14 Norte 29 Norte 0 947.4 -0.8 48
2018-01-27 13:00:00 9.2 13 Norte 24 Norte 0 947.8 -0.2 50
2018-01-27 12:00:00 7.9 10 Noroeste 25 Noroeste 0 948.4 1.4 57
2018-01-27 11:00:00 5.1 13 Noroeste 24 Noroeste 0 948.2 1.4 69
2018-01-27 10:00:00 1.6 3 Nordeste 9 Noroeste 0 948 1.6 82
2018-01-27 09:00:00 1.4 6 Noroeste 19 Noroeste 0 947 0.9 80
2018-01-27 08:00:00 1.3 11 Noroeste 22 Noroeste 0 946.8 1 80
2018-01-27 07:00:00 1.8 12 Noroeste 22 Noroeste 0 946.4 0.5 78
2018-01-27 06:00:00 2.1 10 Noroeste 19 Noroeste 0 946.1 0 77
2018-01-27 05:00:00 2.4 12 Noroeste 24 Noroeste 0 945.8 -0.5 75
2018-01-27 04:00:00 2.4 12 Noroeste 20 Noroeste 0 945.9 -0.6 78
2018-01-27 03:00:00 0.9 4 Sur 7 Oeste 0 946.1 0.5 81
2018-01-27 02:00:00 1.6 4 Sudoeste 9 Sur 0 946.3 0.8 81
2018-01-27 01:00:00 1.5 4 Sur 22 Noroeste 0 946.5 1.3 78
2018-01-27 00:00:00 2.7 12 Noroeste 22 Noroeste 0 945.6 0.4 75
2018-01-26 23:00:00 2.4 9 Noroeste 19 Noroeste 0 945.5 1.2 76
2018-01-26 22:00:00 2.8 11 Noroeste 17 Noroeste 0 945.2 1.5 74
2018-01-26 21:00:00 3.7 9 Oeste 22 Noroeste 0 945.2 2.3 72
2018-01-26 20:00:00 4.2 9 Noroeste 24 Norte 0 944.3 1.9 69
2018-01-26 19:00:00 4.9 16 Norte 35 Norte 0 943.7 1.8 66
2018-01-26 18:00:00 6.4 19 Norte 29 Norte 0 942.9 1.5 60
2018-01-26 17:00:00 8.5 18 Norte 45 Norte 0 942.4 0.6 52
2018-01-26 16:00:00 9.3 20 Norte 37 Norte 0 941.9 -0.4 49
2018-01-26 15:00:00 8.5 13 Noroeste 55 Norte 0 941.4 -1.2 52
2018-01-26 14:00:00 8.2 22 Norte 41 Noroeste 0 941.8 0.1 53
2018-01-26 13:00:00 7.7 15 Noroeste 32 Noroeste 0 942.3 1.3 57
2018-01-26 12:00:00 7.2 15 Noroeste 32 Noroeste 0 942.6 2.4 60
2018-01-26 11:00:00 5.1 8 Noroeste 23 Noroeste 0 941.7 2 66
2018-01-26 10:00:00 3.2 11 Noroeste 25 Noroeste 0 941 2 74
2018-01-26 09:00:00 1.5 9 Noroeste 23 Noroeste 0 940.2 1.6 79
2018-01-26 08:00:00 1.5 11 Noroeste 25 Noroeste 0 939.7 1.3 79
2018-01-26 07:00:00 1.5 13 Noroeste 24 Noroeste 0 939 0.6 77
2018-01-26 06:00:00 1.1 10 Oeste 19 Oeste 0 938.6 0.3 77
2018-01-26 05:00:00 1.2 8 Oeste 17 Oeste 0 938.4 0.3 77
2018-01-26 04:00:00 1.5 10 Oeste 22 Noroeste 0 938.4 0.4 76
2018-01-26 03:00:00 1.6 9 Noroeste 20 Noroeste 0 938.3 0.7 78
2018-01-26 02:00:00 1.4 6 Oeste 14 Noroeste 0 938.1 1.1 80
2018-01-26 01:00:00 1.9 9 Noroeste 15 Noroeste 0 938 1.4 79
2018-01-26 00:00:00 2.3 8 Oeste 21 Noroeste 0 937.6 1.3 78
2018-01-25 23:00:00 2.8 13 Noroeste 25 Noroeste 0 937 1 76
2018-01-25 22:00:00 3.3 10 Noroeste 27 Noroeste 0 936.6 1.5 75
2018-01-25 21:00:00 4 14 Noroeste 30 Noroeste 0 936.3 2.2 72
2018-01-25 20:00:00 4.2 13 Noroeste 34 Noroeste 0 936 2.6 70
2018-01-25 19:00:00 4.8 18 Noroeste 37 Noroeste 0 935.1 1.9 71
2018-01-25 18:00:00 5.7 16 Noroeste 35 Norte 0 934.1 1.3 72
2018-01-25 17:00:00 6.8 14 Noroeste 33 Noroeste 0 933.4 0 70
2018-01-25 16:00:00 6.5 6 Norte 32 Oeste 0.4 933.2 -1 78
2018-01-25 15:00:00 8.1 4 Oeste 14 Noroeste 0 932.8 -1.4 75
2018-01-25 14:00:00 6.3 8 Norte 23 Noroeste 1 933.4 -0.4 85
2018-01-25 13:00:00 6.3 8 Norte 25 Oeste 1.4 934.2 0.2 88
2018-01-25 12:00:00 7.7 8 Sudoeste 25 Sudoeste 0 934.2 0.1 89
2018-01-25 11:00:00 7.5 9 Sudoeste 26 Sudoeste 0 933.8 -0.7 89
2018-01-25 10:00:00 6.9 14 Sudoeste 30 Sudoeste 0 934 -1.1 91
2018-01-25 09:00:00 6.8 11 Sudoeste 30 Sudoeste 0 934.1 -1.6 90
2018-01-25 08:00:00 6.6 12 Sudoeste 27 Sur 0.4 934.5 -1.9 92
2018-01-25 07:00:00 5.4 6 Sur 16 Sur 4 935.1 -2.1 92
2018-01-25 06:00:00 5.2 8 Sur 17 Sur 2.6 935.7 -2.3 91
2018-01-25 05:00:00 5.2 3 Sudoeste 12 Sudeste 0 936.4 -2.6 88
2018-01-25 04:00:00 5.3 5 Sur 14 Sur 0 937.2 -2.6 87
2018-01-25 03:00:00 5.4 6 Sur 11 Sur 0 938 -2.5 87
2018-01-25 02:00:00 5 5 Sur 8 Sur 0 939 -1.7 86
2018-01-25 01:00:00 4.9 4 Sur 7 Sur 0 939.8 -1.1 86
2018-01-25 00:00:00 4.6 0 Calma 4 Este 0 940.5 -0.5 86
2018-01-24 23:00:00 4.7 0 Calma 4 Oeste 0 940.7 -0.6 83
2018-01-24 22:00:00 3.9 3 Norte 5 Norte 0 940.9 -0.3 86
2018-01-24 21:00:00 3.9 2 Nordeste 6 Nordeste 0 941 -0.2 84
2018-01-24 20:00:00 4.6 2 Norte 5 Norte 0 941.3 -0.1 81
2018-01-24 19:00:00 5.5 3 Norte 8 Noroeste 0 941.2 -0.2 78
2018-01-24 18:00:00 6.7 2 Noroeste 8 Noroeste 0 941.2 -0.5 71
2018-01-24 17:00:00 7.3 5 Norte 14 Norte 0 941.4 -1 68
2018-01-24 16:00:00 8.1 6 Noroeste 18 Noroeste 0 941.4 -2.1 64
2018-01-24 15:00:00 8.4 5 Oeste 16 Noroeste 0 941.7 -2.2 65
2018-01-24 14:00:00 8 3 Norte 16 Sur 0 942.4 -1.6 65
2018-01-24 13:00:00 6 6 Oeste 16 Sudoeste 0 943.5 -0.3 73
2018-01-24 12:00:00 5.1 8 Sudoeste 20 Sudeste 0 943.9 0.3 76
2018-01-24 11:00:00 4.4 6 Sur 13 Sur 0 944 0.6 82
2018-01-24 10:00:00 3.9 5 Sudoeste 11 Oeste 0 943.8 0.4 85
2018-01-24 09:00:00 3.7 6 Sur 13 Sudoeste 0 943.6 0.1 85
2018-01-24 08:00:00 3.6 4 Sur 12 Sudeste 0 943.4 -0.3 86
2018-01-24 07:00:00 3.7 3 Sur 7 Sudeste 0 943.4 -0.7 86
2018-01-24 06:00:00 3.6 3 Sur 13 Sudeste 0 943.5 -1 85
2018-01-24 05:00:00 3.9 3 Sudeste 7 Sudeste 0 943.7 -1.2 86
2018-01-24 04:00:00 4 3 Sudeste 9 Sudeste 0 944.1 -1.4 86
2018-01-24 03:00:00 4.1 4 Sudeste 7 Sudeste 0 944.5 -1.4 87
2018-01-24 02:00:00 4.3 3 Sudeste 8 Este 0 944.9 -1.3 87
2018-01-24 01:00:00 4.5 4 Sudeste 8 Sudeste 0 945.5 -0.5 87
2018-01-24 00:00:00 4.7 3 Este 8 Nordeste 0 945.9 -0.3 87
2018-01-23 23:00:00 4.9 3 Sudeste 10 Este 0 946.2 -0.1 88
2018-01-23 22:00:00 5 2 Norte 14 Sudoeste 0 946 -0.3 90
2018-01-23 21:00:00 5.1 3 Este 10 Sudeste 0 946.2 0.4 89
2018-01-23 20:00:00 5.4 2 Sudeste 9 Norte 0 946.3 0.6 89
2018-01-23 19:00:00 5.7 4 Nordeste 10 Nordeste 0 946.3 0.6 89
2018-01-23 18:00:00 5.9 4 Norte 9 Norte 0 945.8 -0.1 87
2018-01-23 17:00:00 6.3 2 Nordeste 8 Norte 0 945.7 -0.7 86
2018-01-23 16:00:00 6.2 3 Nordeste 9 Nordeste 0 945.7 -1.4 86
2018-01-23 15:00:00 6.3 2 Norte 8 Noroeste 0 945.9 -1.6 86
2018-01-23 14:00:00 6.1 4 Noroeste 8 Noroeste 0 946.4 -1 87
2018-01-23 13:00:00 5.9 3 Sudeste 8 Sudeste 0 947.1 0.2 87
2018-01-23 12:00:00 5.7 2 Sur 6 Sudeste 0 947.5 1 89
2018-01-23 11:00:00 5.5 2 Nordeste 9 Este 0 947.4 1.1 89
2018-01-23 10:00:00 5.4 3 Norte 9 Norte 0 946.9 0.7 91
2018-01-23 09:00:00 5.3 3 Nordeste 8 Norte 0 946.5 0.3 91
2018-01-23 08:00:00 5.4 3 Nordeste 8 Nordeste 0 946.3 0.1 91
2018-01-23 07:00:00 5.5 5 Norte 11 Norte 0 946.2 -0.3 90
2018-01-23 06:00:00 5.5 4 Nordeste 8 Norte 0 946.2 -0.3 90
2018-01-23 05:00:00 5.6 4 Nordeste 9 Este 0 946.2 -0.5 89
2018-01-23 04:00:00 5.9 4 Norte 10 Nordeste 0 946.5 -0.6 88
2018-01-23 03:00:00 6.2 5 Nordeste 10 Nordeste 0 946.5 -0.5 88
2018-01-23 02:00:00 6.4 0 Calma 8 Norte 0 946.7 -0.4 87
2018-01-23 01:00:00 6.6 0 Calma 13 Este 0 947.1 0 87
2018-01-23 00:00:00 6.6 0 Calma 12 Nordeste 0 947 0 87
2018-01-22 23:00:00 6.5 4 Nordeste 11 Nordeste 0 947.1 0.4 87
2018-01-22 22:00:00 6.5 6 Nordeste 16 Este 0 947.1 1 87
2018-01-22 21:00:00 6.4 5 Nordeste 15 Nordeste 0 947 1.2 89
2018-01-22 20:00:00 6.4 5 Este 16 Este 0 946.7 1.1 90
2018-01-22 19:00:00 6.1 9 Nordeste 19 Nordeste 0 946.1 0.8 91
2018-01-22 18:00:00 6.6 6 Este 18 Este 0 945.8 0.6 89
2018-01-22 17:00:00 6.8 3 Este 11 Sudeste 0 945.6 -0.5 89
2018-01-22 16:00:00 6.4 4 Sudeste 12 Sur 0 945.3 -1.3 91
2018-01-22 15:00:00 5.6 5 Sur 12 Sudoeste 0 945.2 -1.9 93
2018-01-22 14:00:00 5 3 Sur 10 Sudeste 0 946.1 -1.1 94
2018-01-22 13:00:00 4.4 4 Este 9 Este 0 946.6 0.3 95
2018-01-22 12:00:00 3.9 2 Sudeste 6 Norte 0 947.1 1.1 95
2018-01-22 11:00:00 3.1 3 Norte 7 Nordeste 0 947.2 1.1 95
2018-01-22 10:00:00 1.5 0 Calma 4 Nordeste 0 946.3 0.4 95
2018-01-22 09:00:00 0.8 2 Sudeste 9 Sudoeste 0 946 0.2 95
2018-01-22 08:00:00 0.5 2 Sudoeste 6 Sur 0 946.1 0.4 95
2018-01-22 07:00:00 0.9 4 Sur 8 Sur 0 945.9 -0.1 95
2018-01-22 06:00:00 1 2 Este 6 Sur 0 945.8 -0.1 95
2018-01-22 05:00:00 1 3 Sur 10 Sur 0 945.7 -0.4 95
2018-01-22 04:00:00 1.5 0 Calma 6 Sudoeste 0 946 -0.4 94
2018-01-22 03:00:00 1.4 0 Calma 5 Norte 0 945.9 -0.6 94
2018-01-22 02:00:00 1.5 2 Norte 6 Sur 0 946.1 -0.2 93
2018-01-22 01:00:00 2.3 2 Sur 5 Sudeste 0 946.4 0.1 92
2018-01-22 00:00:00 2.8 0 Calma 6 Este 0 946.5 0.3 90